Time;durP1;ratioP1;P1;durP2;ratioP2;P2;SDS_P1;SDS_P2;PMS_P1;PMS_P2;Temp;Humidity;BMP_temperature;BMP_pressure;BME280_temperature;BME280_humidity;BME280_pressure;Samples;Min_cycle;Max_cycle;Signal;HPM_P1;HPM_P2
2022/06/15 00:01:02;;;;;;;9.20;3.78;;;;;;;;;;5096577;28;20221;-38
2022/06/15 00:03:31;;;;;;;7.50;3.92;;;;;;;;;;5096632;28;20210;-38
2022/06/15 00:06:16;;;;;;;7.72;3.58;;;;;;;;;;5096670;28;20222;-38
2022/06/15 00:08:45;;;;;;;8.85;3.70;;;;;;;;;;5096792;28;20198;-38
2022/06/15 00:11:18;;;;;;;10.52;3.95;;;;;;;;;;5096800;28;20229;-39
2022/06/15 00:13:46;;;;;;;8.90;3.80;;;;;;;;;;5096699;28;20211;-39
2022/06/15 00:16:14;;;;;;;7.65;4.28;;;;;;;;;;5096605;28;20207;-38
2022/06/15 00:18:44;;;;;;;12.25;4.15;;;;;;;;;;5096163;28;20202;-38
2022/06/15 00:21:14;;;;;;;8.70;3.90;;;;;;;;;;5078639;28;20202;-38
2022/06/15 00:23:41;;;;;;;5.28;3.90;;;;;;;;;;5096174;28;20198;-38
2022/06/15 00:26:08;;;;;;;8.07;3.95;;;;;;;;;;5095694;28;20610;-38
2022/06/15 00:28:36;;;;;;;7.93;4.20;;;;;;;;;;5096416;28;20202;-39
2022/06/15 00:31:03;;;;;;;8.48;4.22;;;;;;;;;;5078316;28;20620;-38
2022/06/15 00:33:35;;;;;;;10.82;4.28;;;;;;;;;;5078777;28;20212;-38
2022/06/15 00:36:06;;;;;;;10.05;4.07;;;;;;;;;;5096079;28;20209;-38
2022/06/15 00:38:44;;;;;;;10.65;4.18;;;;;;;;;;5078193;28;20285;-38
2022/06/15 00:41:14;;;;;;;9.73;3.90;;;;;;;;;;5096127;28;20213;-38
2022/06/15 00:43:46;;;;;;;6.97;3.70;;;;;;;;;;5095693;28;20199;-38
2022/06/15 00:46:41;;;;;;;9.45;4.55;;;;;;;;;;5096278;28;20237;-39
2022/06/15 00:49:42;;;;;;;13.15;4.40;;;;;;;;;;5095934;28;20198;-39
2022/06/15 00:52:13;;;;;;;7.10;3.95;;;;;;;;;;5017696;28;20204;-38
2022/06/15 00:54:40;;;;;;;7.32;4.13;;;;;;;;;;5018177;28;20642;-38
2022/06/15 00:57:07;;;;;;;11.32;4.75;;;;;;;;;;5033881;28;20567;-39
2022/06/15 00:59:43;;;;;;;11.73;4.60;;;;;;;;;;5034111;28;20215;-38
2022/06/15 01:02:10;;;;;;;10.20;4.13;;;;;;;;;;5034479;28;20270;-38
2022/06/15 01:04:48;;;;;;;7.50;4.22;;;;;;;;;;5033673;28;20209;-38
2022/06/15 01:07:34;;;;;;;9.10;4.55;;;;;;;;;;5033916;28;20267;-38
2022/06/15 01:10:17;;;;;;;7.97;4.50;;;;;;;;;;5033726;28;20201;-38
2022/06/15 01:13:12;;;;;;;9.32;4.38;;;;;;;;;;5033741;28;20205;-38
2022/06/15 01:16:14;;;;;;;8.30;4.68;;;;;;;;;;5033535;28;20749;-39
2022/06/15 01:19:12;;;;;;;8.10;4.30;;;;;;;;;;5031242;28;20254;-39
2022/06/15 01:21:48;;;;;;;8.05;4.18;;;;;;;;;;5033692;28;20223;-39
2022/06/15 01:24:41;;;;;;;9.18;4.50;;;;;;;;;;5033561;28;20212;-39
2022/06/15 01:27:30;;;;;;;12.32;4.22;;;;;;;;;;5031965;28;20728;-38
2022/06/15 01:30:00;;;;;;;8.65;4.38;;;;;;;;;;5094374;28;20198;-40
2022/06/15 01:32:46;;;;;;;11.40;4.22;;;;;;;;;;5094914;28;20678;-39
2022/06/15 01:35:32;;;;;;;8.48;4.60;;;;;;;;;;5077448;28;20206;-39
2022/06/15 01:38:22;;;;;;;12.48;4.40;;;;;;;;;;5094906;28;20213;-39
2022/06/15 01:40:57;;;;;;;8.68;4.45;;;;;;;;;;5061700;28;20214;-39
2022/06/15 01:43:28;;;;;;;11.32;4.30;;;;;;;;;;5060798;28;20214;-38
2022/06/15 01:45:56;;;;;;;11.32;4.25;;;;;;;;;;5060800;28;20240;-38
2022/06/15 01:48:26;;;;;;;7.75;4.53;;;;;;;;;;5061041;28;20210;-38
2022/06/15 01:50:59;;;;;;;8.40;4.43;;;;;;;;;;5060777;28;20206;-39
2022/06/15 01:53:33;;;;;;;14.90;4.85;;;;;;;;;;5060949;28;20206;-39
2022/06/15 01:56:04;;;;;;;8.15;4.60;;;;;;;;;;5061247;28;20735;-38
2022/06/15 01:58:33;;;;;;;10.95;5.07;;;;;;;;;;5081308;28;20582;-39
2022/06/15 02:01:08;;;;;;;10.40;4.88;;;;;;;;;;5064666;28;20198;-38
2022/06/15 02:03:45;;;;;;;8.82;5.00;;;;;;;;;;5064795;28;20243;-38
2022/06/15 02:06:12;;;;;;;8.95;5.20;;;;;;;;;;5097637;28;20312;-38
2022/06/15 02:08:45;;;;;;;10.57;5.07;;;;;;;;;;5080773;28;20627;-39
2022/06/15 02:11:22;;;;;;;9.73;5.70;;;;;;;;;;5081317;28;20206;-39
2022/06/15 02:13:56;;;;;;;14.80;5.40;;;;;;;;;;5081111;28;20202;-38
2022/06/15 02:16:31;;;;;;;9.15;4.97;;;;;;;;;;5064392;28;20208;-39
2022/06/15 02:19:00;;;;;;;14.18;5.60;;;;;;;;;;5064806;28;20221;-38
2022/06/15 02:21:28;;;;;;;14.77;5.43;;;;;;;;;;5064373;28;20213;-38
2022/06/15 02:23:58;;;;;;;8.23;4.75;;;;;;;;;;5080857;28;20657;-38
2022/06/15 02:26:29;;;;;;;9.82;4.70;;;;;;;;;;5080724;28;20241;-38
2022/06/15 02:28:59;;;;;;;12.48;4.65;;;;;;;;;;5064334;28;20219;-38
2022/06/15 02:31:36;;;;;;;10.40;4.80;;;;;;;;;;5082174;28;20194;-38
2022/06/15 02:34:03;;;;;;;9.13;4.20;;;;;;;;;;5098406;28;20533;-38
2022/06/15 02:36:32;;;;;;;9.95;4.82;;;;;;;;;;5098230;28;20227;-38
2022/06/15 02:39:04;;;;;;;11.93;5.15;;;;;;;;;;5080851;28;20202;-39
2022/06/15 02:41:31;;;;;;;12.00;5.07;;;;;;;;;;5080671;28;20213;-38
2022/06/15 02:44:03;;;;;;;10.25;5.10;;;;;;;;;;5080659;28;20196;-38
2022/06/15 02:46:37;;;;;;;9.18;4.85;;;;;;;;;;5064453;28;20223;-38
2022/06/15 02:49:05;;;;;;;8.82;4.88;;;;;;;;;;5064181;28;20202;-38
2022/06/15 02:51:39;;;;;;;7.72;4.03;;;;;;;;;;5063989;28;20298;-38
2022/06/15 02:54:37;;;;;;;11.10;4.35;;;;;;;;;;5080588;28;20174;-39
2022/06/15 02:57:11;;;;;;;9.38;4.47;;;;;;;;;;5064552;28;20234;-39
2022/06/15 02:59:40;;;;;;;11.38;4.93;;;;;;;;;;5064060;28;20268;-39
2022/06/15 03:02:07;;;;;;;12.70;4.45;;;;;;;;;;5080010;28;20206;-40
2022/06/15 03:04:44;;;;;;;8.07;4.70;;;;;;;;;;5080352;28;20293;-39
2022/06/15 03:07:14;;;;;;;13.00;4.57;;;;;;;;;;5096952;28;20226;-39
2022/06/15 03:09:41;;;;;;;12.35;4.35;;;;;;;;;;5097632;28;20733;-39
2022/06/15 03:12:12;;;;;;;11.27;4.63;;;;;;;;;;5080117;28;20688;-39
2022/06/15 03:14:40;;;;;;;13.00;4.65;;;;;;;;;;5079896;28;20203;-39
2022/06/15 03:17:11;;;;;;;8.10;4.32;;;;;;;;;;5096998;28;20198;-39
2022/06/15 03:20:00;;;;;;;7.80;4.07;;;;;;;;;;5097006;28;20213;-40
2022/06/15 03:22:32;;;;;;;8.05;4.07;;;;;;;;;;5096673;28;20229;-39
2022/06/15 03:25:00;;;;;;;16.73;4.35;;;;;;;;;;5079766;28;20529;-39
2022/06/15 03:27:31;;;;;;;11.25;4.32;;;;;;;;;;5079882;28;20677;-39
2022/06/15 03:30:00;;;;;;;8.23;4.20;;;;;;;;;;5088284;28;20213;-39
2022/06/15 03:32:36;;;;;;;9.73;4.53;;;;;;;;;;5079823;28;20194;-39
2022/06/15 03:35:05;;;;;;;9.52;4.30;;;;;;;;;;5079312;28;20202;-39
2022/06/15 03:37:34;;;;;;;9.77;4.18;;;;;;;;;;5080000;28;20619;-39
2022/06/15 03:40:16;;;;;;;9.90;4.05;;;;;;;;;;5080182;28;20205;-39
2022/06/15 03:42:46;;;;;;;18.33;3.90;;;;;;;;;;5096801;28;20252;-38
2022/06/15 03:45:15;;;;;;;11.20;4.43;;;;;;;;;;5079470;28;20203;-38
2022/06/15 03:47:42;;;;;;;11.10;4.57;;;;;;;;;;5079220;28;20233;-38
2022/06/15 03:50:11;;;;;;;11.00;4.22;;;;;;;;;;5096030;28;20593;-39
2022/06/15 03:52:38;;;;;;;8.82;3.70;;;;;;;;;;5079175;28;20223;-38
2022/06/15 03:55:06;;;;;;;10.70;4.30;;;;;;;;;;5079402;28;20232;-38
2022/06/15 03:57:33;;;;;;;6.72;4.10;;;;;;;;;;5079382;28;20284;-38
2022/06/15 04:00:05;;;;;;;12.48;4.13;;;;;;;;;;5079125;28;20199;-38
2022/06/15 04:02:52;;;;;;;10.65;4.53;;;;;;;;;;5094022;28;20195;-42
2022/06/15 04:05:42;;;;;;;9.23;4.07;;;;;;;;;;5065856;28;20282;-39
2022/06/15 04:11:10;;;;;;;13.70;4.47;;;;;;;;;;5070559;28;20763;-41
2022/06/15 04:13:38;;;;;;;7.22;3.72;;;;;;;;;;5068505;28;20674;-39
2022/06/15 04:16:07;;;;;;;10.60;3.70;;;;;;;;;;5064642;28;20223;-43
2022/06/15 04:18:35;;;;;;;10.90;4.78;;;;;;;;;;5068242;28;20285;-39
2022/06/15 04:21:07;;;;;;;15.77;4.35;;;;;;;;;;5070082;28;20230;-41
2022/06/15 04:23:34;;;;;;;7.60;4.13;;;;;;;;;;5069708;28;20232;-39
2022/06/15 04:26:03;;;;;;;11.35;4.32;;;;;;;;;;5065753;28;20219;-40
2022/06/15 04:28:41;;;;;;;8.63;4.07;;;;;;;;;;5071661;28;20623;-40
2022/06/15 04:31:16;;;;;;;9.93;4.55;;;;;;;;;;5063298;28;20613;-42
2022/06/15 04:33:43;;;;;;;7.72;4.30;;;;;;;;;;5077470;28;20549;-39
2022/06/15 04:36:13;;;;;;;12.48;6.70;;;;;;;;;;5077104;28;20284;-43
2022/06/15 04:38:43;;;;;;;28.15;12.82;;;;;;;;;;5093868;28;20250;-39
2022/06/15 04:41:11;;;;;;;10.52;4.47;;;;;;;;;;5076868;28;20227;-39
2022/06/15 04:43:38;;;;;;;10.30;4.35;;;;;;;;;;5077241;28;20239;-39
2022/06/15 04:46:13;;;;;;;19.85;6.07;;;;;;;;;;5077094;28;20244;-39
2022/06/15 04:48:42;;;;;;;17.70;7.25;;;;;;;;;;5076413;28;20258;-39
2022/06/15 04:51:11;;;;;;;12.27;4.47;;;;;;;;;;5076375;28;20317;-39
2022/06/15 04:53:42;;;;;;;12.70;4.03;;;;;;;;;;5076339;28;20720;-39
2022/06/15 04:56:09;;;;;;;9.57;4.05;;;;;;;;;;5093686;28;20246;-40
2022/06/15 04:58:36;;;;;;;6.07;3.33;;;;;;;;;;5094251;28;20257;-39
2022/06/15 05:01:03;;;;;;;9.02;4.10;;;;;;;;;;5076989;28;20301;-39
2022/06/15 05:03:31;;;;;;;6.85;3.40;;;;;;;;;;5077050;28;20241;-41
2022/06/15 05:06:29;;;;;;;7.72;4.10;;;;;;;;;;5077151;28;20238;-38
2022/06/15 05:08:57;;;;;;;11.45;3.95;;;;;;;;;;5077242;28;20246;-38
2022/06/15 05:11:28;;;;;;;11.07;3.60;;;;;;;;;;5076603;28;20265;-39
2022/06/15 05:13:56;;;;;;;12.93;3.97;;;;;;;;;;5076360;28;20549;-38
2022/06/15 05:16:25;;;;;;;7.88;3.67;;;;;;;;;;5076076;28;20296;-38
2022/06/15 05:18:53;;;;;;;7.88;4.00;;;;;;;;;;5077184;28;20264;-38
2022/06/15 05:21:27;;;;;;;8.25;3.55;;;;;;;;;;5093780;28;20230;-39
2022/06/15 05:23:55;;;;;;;11.43;3.72;;;;;;;;;;5086549;28;20210;-40
2022/06/15 05:26:47;;;;;;;9.40;3.80;;;;;;;;;;5077842;28;20198;-39
2022/06/15 05:29:15;;;;;;;9.90;3.83;;;;;;;;;;5111316;28;20236;-39
2022/06/15 05:31:44;;;;;;;7.75;3.90;;;;;;;;;;5077513;28;20202;-39
2022/06/15 05:34:13;;;;;;;10.20;3.75;;;;;;;;;;5077642;28;20202;-39
2022/06/15 05:36:41;;;;;;;7.53;3.42;;;;;;;;;;5077706;28;20232;-39
2022/06/15 05:39:10;;;;;;;9.77;3.25;;;;;;;;;;5077567;28;20723;-39
2022/06/15 05:41:40;;;;;;;12.38;3.33;;;;;;;;;;5078071;28;20363;-39
2022/06/15 05:46:44;;;;;;;9.88;3.58;;;;;;;;;;5077706;28;20243;-39
2022/06/15 05:49:37;;;;;;;10.60;3.15;;;;;;;;;;5111254;28;20207;-39
2022/06/15 05:52:06;;;;;;;13.98;3.45;;;;;;;;;;5095753;28;20206;-39
2022/06/15 05:54:35;;;;;;;12.02;3.85;;;;;;;;;;5077448;28;20230;-39
2022/06/15 05:57:10;;;;;;;11.88;3.08;;;;;;;;;;5095239;28;20240;-40
2022/06/15 05:59:45;;;;;;;5.65;2.78;;;;;;;;;;5095260;28;20252;-40
2022/06/15 06:02:12;;;;;;;8.82;2.58;;;;;;;;;;5095424;28;20226;-40
2022/06/15 06:04:39;;;;;;;7.32;2.70;;;;;;;;;;5094998;28;20203;-39
2022/06/15 06:07:09;;;;;;;8.40;2.38;;;;;;;;;;5094704;28;20210;-39
2022/06/15 06:09:37;;;;;;;5.80;2.67;;;;;;;;;;5095113;28;20268;-39
2022/06/15 06:12:05;;;;;;;8.25;2.50;;;;;;;;;;5094578;28;20210;-39
2022/06/15 06:14:32;;;;;;;7.63;3.00;;;;;;;;;;5094843;28;20199;-39
2022/06/15 06:16:59;;;;;;;8.02;2.95;;;;;;;;;;5094809;28;20241;-39
2022/06/15 06:19:26;;;;;;;14.25;3.75;;;;;;;;;;5094852;28;20202;-39
2022/06/15 06:21:54;;;;;;;9.27;2.78;;;;;;;;;;5076798;28;20198;-38
2022/06/15 06:24:21;;;;;;;8.52;2.97;;;;;;;;;;5094596;28;20568;-40
2022/06/15 06:26:48;;;;;;;12.63;2.88;;;;;;;;;;5094726;28;20217;-38
2022/06/15 06:29:16;;;;;;;9.90;2.90;;;;;;;;;;5094371;28;20226;-38
2022/06/15 06:31:43;;;;;;;9.77;2.85;;;;;;;;;;5094674;28;20509;-39
2022/06/15 06:34:11;;;;;;;10.02;2.55;;;;;;;;;;5094378;28;20293;-38
2022/06/15 06:36:42;;;;;;;7.70;2.78;;;;;;;;;;5094886;28;20214;-38
2022/06/15 06:39:13;;;;;;;11.57;2.35;;;;;;;;;;5077003;28;20221;-38
2022/06/15 06:41:41;;;;;;;8.65;2.50;;;;;;;;;;5094952;28;20202;-38
2022/06/15 06:44:10;;;;;;;6.03;2.25;;;;;;;;;;5098237;28;20543;-38
2022/06/15 06:46:42;;;;;;;5.70;2.65;;;;;;;;;;5098395;28;20202;-38
2022/06/15 06:49:09;;;;;;;6.65;2.05;;;;;;;;;;5098554;28;20230;-38
2022/06/15 06:51:38;;;;;;;9.10;2.45;;;;;;;;;;5098224;28;20294;-39
2022/06/15 06:54:06;;;;;;;8.75;1.95;;;;;;;;;;5097971;28;20199;-38
2022/06/15 06:56:36;;;;;;;11.20;2.35;;;;;;;;;;5097944;28;20292;-39
2022/06/15 06:59:06;;;;;;;5.35;2.10;;;;;;;;;;5098060;28;20198;-39
2022/06/15 07:01:38;;;;;;;8.23;2.33;;;;;;;;;;5098446;28;20203;-39
2022/06/15 07:04:05;;;;;;;8.60;2.40;;;;;;;;;;5098149;28;20286;-39
2022/06/15 07:06:32;;;;;;;6.75;2.08;;;;;;;;;;5097796;28;20221;-39
2022/06/15 07:09:01;;;;;;;5.00;1.77;;;;;;;;;;5097863;28;20259;-39
2022/06/15 07:11:28;;;;;;;4.53;2.20;;;;;;;;;;5098268;28;20198;-39
2022/06/15 07:13:56;;;;;;;6.68;2.50;;;;;;;;;;5097683;28;20532;-39
2022/06/15 07:16:23;;;;;;;6.10;2.47;;;;;;;;;;5097573;28;20198;-40
2022/06/15 07:18:51;;;;;;;7.07;2.10;;;;;;;;;;5097657;28;20215;-39
2022/06/15 07:21:20;;;;;;;5.68;2.15;;;;;;;;;;5097707;28;20233;-39
2022/06/15 07:23:49;;;;;;;6.25;2.35;;;;;;;;;;5097682;28;20213;-39
2022/06/15 07:26:22;;;;;;;8.75;2.20;;;;;;;;;;5098031;28;20231;-39
2022/06/15 07:28:49;;;;;;;5.78;1.83;;;;;;;;;;5097588;28;20246;-39
2022/06/15 07:31:26;;;;;;;4.25;1.77;;;;;;;;;;5097284;28;20279;-39
2022/06/15 07:33:54;;;;;;;6.18;1.95;;;;;;;;;;5097505;28;20198;-39
2022/06/15 07:36:23;;;;;;;7.40;2.17;;;;;;;;;;5097433;28;20194;-40
2022/06/15 07:38:55;;;;;;;6.95;2.03;;;;;;;;;;5097155;28;20194;-39
2022/06/15 07:41:23;;;;;;;7.90;1.60;;;;;;;;;;5097462;28;20198;-39
2022/06/15 07:43:51;;;;;;;4.13;1.42;;;;;;;;;;5096919;28;20205;-39
2022/06/15 07:46:18;;;;;;;5.18;1.90;;;;;;;;;;5097276;28;20209;-39
2022/06/15 07:51:43;;;;;;;9.63;2.28;;;;;;;;;;5097284;28;20222;-40
2022/06/15 07:54:13;;;;;;;9.07;1.90;;;;;;;;;;5096038;28;20206;-39
2022/06/15 07:56:41;;;;;;;5.28;1.90;;;;;;;;;;5097035;28;20234;-40
2022/06/15 07:59:08;;;;;;;5.35;1.88;;;;;;;;;;5097446;28;20210;-38
2022/06/15 08:01:36;;;;;;;5.30;1.42;;;;;;;;;;5096869;28;20198;-38
2022/06/15 08:04:03;;;;;;;6.75;1.80;;;;;;;;;;5079162;28;20387;-38
2022/06/15 08:06:31;;;;;;;11.02;2.00;;;;;;;;;;5096847;28;20203;-39
2022/06/15 08:08:59;;;;;;;3.85;1.50;;;;;;;;;;5079237;28;20237;-38
2022/06/15 08:11:26;;;;;;;8.80;1.58;;;;;;;;;;5096563;28;20521;-38
2022/06/15 08:13:55;;;;;;;5.65;2.00;;;;;;;;;;5096635;28;20255;-38
2022/06/15 08:16:23;;;;;;;4.97;1.75;;;;;;;;;;5096456;28;20198;-39
2022/06/15 08:18:54;;;;;;;6.22;1.73;;;;;;;;;;5087510;28;20203;-39
2022/06/15 08:21:25;;;;;;;4.50;1.73;;;;;;;;;;5077326;28;20188;-39
2022/06/15 08:23:55;;;;;;;5.05;1.63;;;;;;;;;;5075466;28;20195;-39
2022/06/15 08:26:25;;;;;;;6.10;1.73;;;;;;;;;;5075555;28;20199;-39
2022/06/15 08:28:55;;;;;;;6.68;2.53;;;;;;;;;;5075223;28;20241;-40
2022/06/15 08:31:23;;;;;;;3.60;1.67;;;;;;;;;;5075277;28;20223;-40
2022/06/15 08:33:50;;;;;;;4.20;1.60;;;;;;;;;;5075532;28;20788;-39
2022/06/15 08:36:19;;;;;;;5.93;2.10;;;;;;;;;;5076670;28;20222;-39
2022/06/15 08:38:47;;;;;;;5.32;1.92;;;;;;;;;;5076003;28;20199;-39
2022/06/15 08:41:32;;;;;;;6.90;1.48;;;;;;;;;;5074954;28;20205;-40
2022/06/15 08:44:41;;;;;;;6.43;1.85;;;;;;;;;;5075923;28;20188;-39
2022/06/15 08:47:20;;;;;;;7.97;1.85;;;;;;;;;;5075101;28;20195;-40
2022/06/15 08:49:59;;;;;;;9.75;2.35;;;;;;;;;;5076046;28;20207;-39
2022/06/15 08:52:34;;;;;;;5.63;1.90;;;;;;;;;;5074689;28;20199;-39
2022/06/15 08:55:09;;;;;;;5.78;1.70;;;;;;;;;;5075728;28;20210;-40
2022/06/15 08:57:44;;;;;;;8.65;2.25;;;;;;;;;;5075887;28;20230;-39
2022/06/15 09:00:23;;;;;;;4.13;1.20;;;;;;;;;;5074765;28;20634;-39
2022/06/15 09:03:02;;;;;;;5.22;1.48;;;;;;;;;;5074684;28;20215;-40
2022/06/15 09:06:00;;;;;;;6.40;1.73;;;;;;;;;;5075078;28;20206;-40
2022/06/15 09:08:52;;;;;;;5.25;1.80;;;;;;;;;;5075696;28;20230;-42
2022/06/15 09:11:19;;;;;;;7.72;1.90;;;;;;;;;;5075170;28;20226;-39
2022/06/15 09:14:06;;;;;;;6.53;1.88;;;;;;;;;;5075154;28;20632;-38
2022/06/15 09:17:06;;;;;;;3.38;1.65;;;;;;;;;;5075237;28;20655;-38
2022/06/15 09:19:39;;;;;;;4.40;1.42;;;;;;;;;;5074246;28;20643;-39
2022/06/15 09:22:10;;;;;;;6.68;1.88;;;;;;;;;;5074482;28;20199;-38
2022/06/15 09:24:48;;;;;;;7.07;2.05;;;;;;;;;;5074763;28;20198;-38
2022/06/15 09:27:22;;;;;;;4.88;2.03;;;;;;;;;;5074281;28;20206;-38
2022/06/15 09:30:05;;;;;;;5.40;1.45;;;;;;;;;;5075236;28;20206;-39
2022/06/15 09:32:42;;;;;;;12.35;1.70;;;;;;;;;;5074704;28;20210;-39
2022/06/15 09:35:24;;;;;;;3.85;1.67;;;;;;;;;;5075338;28;20231;-38
2022/06/15 09:37:54;;;;;;;5.78;1.70;;;;;;;;;;5074798;28;20627;-39
2022/06/15 09:40:44;;;;;;;4.03;1.63;;;;;;;;;;5075044;28;20223;-39
2022/06/15 09:43:29;;;;;;;4.32;1.70;;;;;;;;;;5074412;28;20601;-39
2022/06/15 09:46:13;;;;;;;5.22;1.63;;;;;;;;;;5074233;28;20225;-39
2022/06/15 09:48:43;;;;;;;6.47;1.60;;;;;;;;;;5074251;28;20226;-39
2022/06/15 09:51:43;;;;;;;7.50;2.08;;;;;;;;;;5075049;28;20231;-39
2022/06/15 09:54:36;;;;;;;4.00;1.58;;;;;;;;;;5038667;28;20208;-39
2022/06/15 09:57:03;;;;;;;4.30;1.70;;;;;;;;;;5074063;28;20231;-40
2022/06/15 09:59:33;;;;;;;10.75;2.05;;;;;;;;;;5074696;28;20203;-39
2022/06/15 10:02:04;;;;;;;4.43;1.77;;;;;;;;;;5089565;28;20222;-40
2022/06/15 10:04:34;;;;;;;6.97;1.45;;;;;;;;;;5076693;28;20260;-40
2022/06/15 10:07:17;;;;;;;4.70;1.55;;;;;;;;;;5078009;28;20198;-39
2022/06/15 10:09:50;;;;;;;5.13;1.40;;;;;;;;;;5093740;28;20226;-41
2022/06/15 10:15:19;;;;;;;5.00;1.40;;;;;;;;;;5093680;28;20220;-41
2022/06/15 10:17:50;;;;;;;7.50;1.70;;;;;;;;;;5095553;28;20260;-42
2022/06/15 10:20:35;;;;;;;6.88;1.75;;;;;;;;;;5097748;28;20198;-41
2022/06/15 10:23:06;;;;;;;5.35;1.35;;;;;;;;;;5080064;28;20191;-39
2022/06/15 10:25:36;;;;;;;3.55;1.55;;;;;;;;;;5097639;28;20222;-40
2022/06/15 10:28:27;;;;;;;3.50;1.50;;;;;;;;;;5097644;28;20203;-40
2022/06/15 10:31:00;;;;;;;4.43;1.33;;;;;;;;;;5080430;28;20203;-39
2022/06/15 10:33:50;;;;;;;5.15;1.38;;;;;;;;;;5097628;28;20642;-39
2022/06/15 10:36:26;;;;;;;5.72;1.50;;;;;;;;;;5079939;28;20213;-39
2022/06/15 10:39:01;;;;;;;5.70;1.50;;;;;;;;;;5097338;28;20199;-39
2022/06/15 10:41:49;;;;;;;6.97;1.60;;;;;;;;;;5082564;28;20571;-41
2022/06/15 10:44:25;;;;;;;2.60;1.40;;;;;;;;;;5097345;28;20543;-39
2022/06/15 10:46:54;;;;;;;5.07;1.80;;;;;;;;;;5097087;28;20240;-42
2022/06/15 10:49:22;;;;;;;4.65;1.60;;;;;;;;;;5079416;28;20675;-40
2022/06/15 10:51:50;;;;;;;6.70;1.67;;;;;;;;;;5097203;28;20199;-40
2022/06/15 10:54:17;;;;;;;6.38;1.42;;;;;;;;;;5079835;28;20281;-40
2022/06/15 11:02:37;;;;;;;5.03;1.50;;;;;;;;;;5096524;28;20210;-39
2022/06/15 11:05:08;;;;;;;7.32;1.83;;;;;;;;;;5092388;28;20302;-39
2022/06/15 11:07:46;;;;;;;4.93;1.70;;;;;;;;;;5096875;28;20221;-40
2022/06/15 11:10:29;;;;;;;4.95;1.30;;;;;;;;;;5079141;28;20296;-39
2022/06/15 11:12:58;;;;;;;3.95;1.77;;;;;;;;;;5097066;28;20179;-39
2022/06/15 11:18:39;;;;;;;10.75;1.95;;;;;;;;;;5096732;28;20213;-40
2022/06/15 11:21:22;;;;;;;4.75;1.52;;;;;;;;;;5079249;28;20205;-43
2022/06/15 11:24:25;;;;;;;7.10;1.48;;;;;;;;;;5078821;28;20584;-39
2022/06/15 11:26:57;;;;;;;9.13;1.50;;;;;;;;;;5012374;28;20209;-39
2022/06/15 11:29:43;;;;;;;7.82;1.23;;;;;;;;;;5032152;28;20225;-40
2022/06/15 11:32:10;;;;;;;7.95;1.50;;;;;;;;;;5016130;28;20209;-40
2022/06/15 11:34:43;;;;;;;9.35;1.98;;;;;;;;;;5015782;28;20209;-40
2022/06/15 11:37:14;;;;;;;4.30;1.63;;;;;;;;;;5015796;28;20704;-40
2022/06/15 11:39:46;;;;;;;5.15;1.83;;;;;;;;;;5032085;28;20621;-40
2022/06/15 11:42:16;;;;;;;3.33;1.40;;;;;;;;;;5015795;28;20216;-39
2022/06/15 11:44:44;;;;;;;4.25;1.48;;;;;;;;;;5015676;28;20627;-40
2022/06/15 11:48:00;;;;;;;7.85;1.70;;;;;;;;;;5015688;28;20528;-39
2022/06/15 11:50:31;;;;;;;6.88;1.50;;;;;;;;;;4957074;29;20246;-39
2022/06/15 11:53:01;;;;;;;8.65;1.55;;;;;;;;;;4955581;29;20204;-42
2022/06/15 11:55:54;;;;;;;5.00;1.38;;;;;;;;;;4955274;29;20199;-39
2022/06/15 11:58:27;;;;;;;4.88;1.40;;;;;;;;;;4955353;29;20620;-39
2022/06/15 12:01:12;;;;;;;5.18;1.42;;;;;;;;;;4988344;28;20379;-41
2022/06/15 12:03:46;;;;;;;3.85;1.50;;;;;;;;;;5019215;28;20387;-39
2022/06/15 12:06:38;;;;;;;5.35;1.60;;;;;;;;;;5024845;28;20204;-39
2022/06/15 12:09:35;;;;;;;5.85;1.63;;;;;;;;;;5008852;28;20222;-39
2022/06/15 12:15:30;;;;;;;8.35;1.70;;;;;;;;;;5013529;28;20197;-40
2022/06/15 12:18:20;;;;;;;5.60;1.67;;;;;;;;;;5034474;28;20527;-39
2022/06/15 12:20:55;;;;;;;4.47;1.13;;;;;;;;;;5034652;28;20212;-39
2022/06/15 12:23:30;;;;;;;3.53;1.42;;;;;;;;;;5018480;28;20254;-39
2022/06/15 12:26:07;;;;;;;4.90;1.38;;;;;;;;;;5042693;28;20201;-39
2022/06/15 12:28:44;;;;;;;3.97;1.40;;;;;;;;;;5078615;28;20255;-39
2022/06/15 12:31:26;;;;;;;3.53;1.42;;;;;;;;;;5096076;28;20186;-39
2022/06/15 12:34:06;;;;;;;4.28;1.38;;;;;;;;;;5096340;28;20213;-39
2022/06/15 12:36:41;;;;;;;7.63;1.50;;;;;;;;;;5073584;28;20205;-39
2022/06/15 12:39:14;;;;;;;4.72;1.55;;;;;;;;;;5078444;28;20202;-39
2022/06/15 12:44:57;;;;;;;4.97;1.60;;;;;;;;;;5079817;28;20194;-39
2022/06/15 12:47:26;;;;;;;5.97;1.63;;;;;;;;;;5078320;28;20609;-41
2022/06/15 12:50:31;;;;;;;9.18;1.45;;;;;;;;;;5073742;28;20313;-39
2022/06/15 12:53:08;;;;;;;4.55;1.30;;;;;;;;;;5081707;28;20226;-40
2022/06/15 12:56:05;;;;;;;2.13;1.10;;;;;;;;;;5084443;28;20210;-39
2022/06/15 12:59:17;;;;;;;6.45;1.60;;;;;;;;;;5089236;28;20573;-40
2022/06/15 13:01:54;;;;;;;4.75;1.50;;;;;;;;;;5030948;28;20248;-40
2022/06/15 13:04:31;;;;;;;2.10;1.35;;;;;;;;;;5067716;28;20214;-41
2022/06/15 13:07:23;;;;;;;3.67;1.63;;;;;;;;;;5082526;28;20229;-40
2022/06/15 13:10:09;;;;;;;4.70;1.80;;;;;;;;;;5084246;28;20231;-39
2022/06/15 13:12:46;;;;;;;4.70;1.77;;;;;;;;;;5084083;28;20219;-39
2022/06/15 13:15:33;;;;;;;6.45;1.73;;;;;;;;;;5083623;28;20229;-40
2022/06/15 13:18:12;;;;;;;3.08;1.30;;;;;;;;;;5084626;28;20223;-40
2022/06/15 13:20:45;;;;;;;5.20;1.60;;;;;;;;;;5072066;28;20249;-43
2022/06/15 13:23:32;;;;;;;7.30;1.27;;;;;;;;;;5084116;28;20253;-41
2022/06/15 13:26:08;;;;;;;5.53;1.50;;;;;;;;;;5082554;28;20223;-40
2022/06/15 13:29:07;;;;;;;5.90;1.75;;;;;;;;;;5081897;28;20210;-40
2022/06/15 13:31:50;;;;;;;6.18;1.65;;;;;;;;;;5075508;28;20221;-40
2022/06/15 13:34:37;;;;;;;6.18;1.70;;;;;;;;;;5090449;28;20223;-39
2022/06/15 13:37:15;;;;;;;6.22;1.50;;;;;;;;;;5082091;28;20246;-40
2022/06/15 13:39:41;;;;;;;3.50;1.45;;;;;;;;;;5081867;28;20674;-40
2022/06/15 13:42:30;;;;;;;5.18;1.60;;;;;;;;;;5082527;28;20284;-42
2022/06/15 13:45:23;;;;;;;5.03;1.92;;;;;;;;;;5083735;28;20243;-39
2022/06/15 13:48:06;;;;;;;3.35;1.45;;;;;;;;;;5074796;28;20214;-42
2022/06/15 13:50:49;;;;;;;6.25;1.67;;;;;;;;;;5073474;28;20642;-40
2022/06/15 13:53:31;;;;;;;5.03;2.00;;;;;;;;;;5073343;28;20229;-40
2022/06/15 13:56:10;;;;;;;6.32;1.60;;;;;;;;;;5078887;28;20702;-39
2022/06/15 13:58:59;;;;;;;4.38;1.75;;;;;;;;;;5076139;28;20241;-39
2022/06/15 14:01:45;;;;;;;3.17;1.77;;;;;;;;;;5084238;28;20211;-38
2022/06/15 14:04:15;;;;;;;4.57;1.90;;;;;;;;;;5082466;28;20225;-42
2022/06/15 14:07:13;;;;;;;5.75;1.70;;;;;;;;;;5074409;28;20234;-44
2022/06/15 14:10:05;;;;;;;2.08;1.10;;;;;;;;;;5083214;28;20231;-41
2022/06/15 14:12:54;;;;;;;5.18;1.42;;;;;;;;;;5039778;28;20279;-39
2022/06/15 14:15:24;;;;;;;5.80;1.92;;;;;;;;;;5082191;28;20574;-40
2022/06/15 14:18:03;;;;;;;4.38;1.25;;;;;;;;;;5080936;28;20219;-41
2022/06/15 14:20:44;;;;;;;2.70;1.75;;;;;;;;;;5072442;28;20239;-39
2022/06/15 14:23:12;;;;;;;7.40;1.67;;;;;;;;;;5074309;28;20296;-39
2022/06/15 14:25:59;;;;;;;5.72;1.73;;;;;;;;;;5072573;28;20266;-40
2022/06/15 14:28:28;;;;;;;9.05;1.77;;;;;;;;;;5073654;28;20284;-39
2022/06/15 14:31:07;;;;;;;4.00;1.08;;;;;;;;;;5072830;28;20258;-39
2022/06/15 14:34:06;;;;;;;2.75;1.33;;;;;;;;;;5038521;28;20231;-43
2022/06/15 14:36:33;;;;;;;4.43;1.17;;;;;;;;;;5073737;28;20219;-40
2022/06/15 14:39:16;;;;;;;7.07;1.48;;;;;;;;;;5073214;28;20786;-39
2022/06/15 14:41:43;;;;;;;4.78;1.25;;;;;;;;;;5073353;28;20223;-40
2022/06/15 14:44:22;;;;;;;4.18;1.20;;;;;;;;;;5073488;28;20556;-40
2022/06/15 14:46:57;;;;;;;3.15;1.30;;;;;;;;;;5072882;28;20230;-39
2022/06/15 14:49:37;;;;;;;3.45;1.30;;;;;;;;;;5073452;28;20361;-39
2022/06/15 14:52:23;;;;;;;6.75;1.02;;;;;;;;;;5073404;28;20251;-41
2022/06/15 14:54:58;;;;;;;3.05;1.00;;;;;;;;;;5073420;28;20235;-39
2022/06/15 14:57:29;;;;;;;3.13;1.10;;;;;;;;;;5073423;28;20245;-40
2022/06/15 14:59:59;;;;;;;4.00;1.13;;;;;;;;;;5073300;28;20285;-40
2022/06/15 15:02:40;;;;;;;5.70;1.33;;;;;;;;;;5079298;28;20318;-40
2022/06/15 15:05:08;;;;;;;5.25;1.30;;;;;;;;;;5097138;28;20222;-39
2022/06/15 15:10:29;;;;;;;5.70;1.30;;;;;;;;;;5097172;28;20253;-40
2022/06/15 15:13:37;;;;;;;13.90;1.20;;;;;;;;;;5096710;28;20223;-39
2022/06/15 15:16:06;;;;;;;5.55;1.13;;;;;;;;;;5034438;28;20224;-41
2022/06/15 15:18:39;;;;;;;4.22;1.08;;;;;;;;;;5034660;28;20323;-40
2022/06/15 15:21:35;;;;;;;4.63;1.45;;;;;;;;;;5033701;28;20282;-39
2022/06/15 15:24:20;;;;;;;4.07;1.20;;;;;;;;;;5033234;28;20225;-42
2022/06/15 15:26:54;;;;;;;2.75;1.50;;;;;;;;;;5033124;28;20220;-40
2022/06/15 15:34:08;;;;;;;4.75;1.10;;;;;;;;;;5031955;28;20572;-41
2022/06/15 15:35:11;;;;;;;5.25;1.52;;;;;;;;;;5032933;28;20312;-39
2022/06/15 15:37:39;;;;;;;5.57;1.27;;;;;;;;;;5032652;28;20228;-40
2022/06/15 15:40:11;;;;;;;2.15;0.95;;;;;;;;;;5032857;28;20220;-40
2022/06/15 15:42:39;;;;;;;4.10;1.30;;;;;;;;;;5032411;28;20263;-43
2022/06/15 15:45:08;;;;;;;3.90;1.50;;;;;;;;;;5032650;28;20560;-41
2022/06/15 15:47:35;;;;;;;3.55;1.10;;;;;;;;;;5032565;28;20282;-41
2022/06/15 15:50:03;;;;;;;5.20;1.10;;;;;;;;;;5055756;28;20231;-43
2022/06/15 15:52:31;;;;;;;7.55;1.35;;;;;;;;;;5090926;28;20226;-41
2022/06/15 15:54:58;;;;;;;4.90;1.50;;;;;;;;;;5075755;28;20223;-40
2022/06/15 15:57:25;;;;;;;5.10;1.42;;;;;;;;;;5082083;28;20291;-44
2022/06/15 15:59:53;;;;;;;10.63;1.27;;;;;;;;;;5082286;28;20222;-41